Time;durP1;ratioP1;P1;durP2;ratioP2;P2;SDS_P1;SDS_P2;PMS_P1;PMS_P2;Temp;Humidity;BMP_temperature;BMP_pressure;BME280_temperature;BME280_humidity;BME280_pressure;Samples;Min_cycle;Max_cycle;Signal;HPM_P1;HPM_P2
2022/12/11 04:39:40;;;;;;;11.97;9.50;;;;;;;5.82;71.28;99136.49;1746988;80;21024;-59
2022/12/11 04:42:09;;;;;;;13.50;9.85;;;;;;;5.78;71.16;99131.15;1745477;80;20987;-58
2022/12/11 04:44:35;;;;;;;12.88;9.20;;;;;;;5.75;71.09;99134.84;1753213;80;21677;-58
2022/12/11 04:47:02;;;;;;;15.48;7.45;;;;;;;5.70;71.13;99134.84;1746883;80;21240;-59
2022/12/11 05:36:55;;;;;;;7.75;4.83;;;;;;;5.67;71.37;99048.50;1751377;80;21129;-57
2022/12/11 05:39:21;;;;;;;13.00;8.65;;;;;;;5.64;71.36;99048.75;1738049;80;21177;-58
2022/12/11 05:41:48;;;;;;;9.05;4.97;;;;;;;5.59;71.32;99037.38;1693571;82;21098;-57
2022/12/11 05:44:15;;;;;;;12.53;8.08;;;;;;;5.59;71.15;99045.69;1741543;81;21099;-57
2022/12/11 05:46:42;;;;;;;13.18;8.45;;;;;;;5.64;70.95;99042.22;1728999;80;21121;-60
2022/12/11 05:49:09;;;;;;;11.05;7.80;;;;;;;5.72;71.10;99042.44;1767294;81;21239;-58
2022/12/11 05:51:35;;;;;;;12.65;8.63;;;;;;;5.82;71.31;99037.78;1741851;81;21626;-57
2022/12/11 05:54:04;;;;;;;12.95;7.45;;;;;;;5.85;71.38;99033.14;1732597;80;21086;-58
2022/12/11 05:56:32;;;;;;;10.88;7.42;;;;;;;5.89;71.51;99041.54;1697973;82;21066;-58
2022/12/11 05:59:00;;;;;;;14.07;8.35;;;;;;;5.91;71.50;99042.23;1717752;82;21488;-58
2022/12/11 06:01:35;;;;;;;11.70;8.20;;;;;;;5.91;71.49;99035.22;1699592;82;21196;-58
2022/12/11 06:04:03;;;;;;;14.28;8.73;;;;;;;5.92;71.35;99039.98;1769862;80;22704;-59
2022/12/11 06:06:29;;;;;;;12.90;8.83;;;;;;;5.97;71.11;99037.01;1755365;80;21089;-58
2022/12/11 06:08:57;;;;;;;13.15;9.43;;;;;;;6.07;71.23;99032.22;1754761;80;21012;-59
2022/12/11 06:11:24;;;;;;;16.65;9.28;;;;;;;6.13;71.29;99030.88;1737372;80;21558;-60
2022/12/11 06:13:51;;;;;;;20.48;9.78;;;;;;;6.17;71.23;99022.30;1737460;82;21279;-58
2022/12/11 06:16:18;;;;;;;21.23;9.78;;;;;;;6.18;71.15;99014.34;1745672;80;21099;-59
2022/12/11 06:18:45;;;;;;;11.50;8.55;;;;;;;6.19;71.44;99009.96;1740816;80;21099;-59
2022/12/11 06:21:18;;;;;;;17.42;8.35;;;;;;;6.27;71.70;99014.04;1738496;80;21102;-59
2022/12/11 06:23:45;;;;;;;22.17;8.08;;;;;;;6.29;71.69;99006.44;1774769;80;21046;-58
2022/12/11 06:26:12;;;;;;;18.23;7.67;;;;;;;6.37;71.13;99008.41;1740320;80;21198;-59
2022/12/11 06:28:39;;;;;;;17.57;7.05;;;;;;;6.40;70.96;99007.31;1749981;80;21048;-58
2022/12/11 06:31:06;;;;;;;10.03;7.15;;;;;;;6.41;70.97;99001.96;1735740;80;21047;-59
2022/12/11 06:33:33;;;;;;;12.28;7.40;;;;;;;6.42;71.31;99002.32;1759299;80;21036;-60
2022/12/11 06:36:05;;;;;;;11.20;7.05;;;;;;;6.44;71.27;98990.41;1745158;80;21530;-59
2022/12/11 06:38:32;;;;;;;28.40;9.05;;;;;;;6.43;71.39;98983.54;1748542;80;21735;-59
2022/12/11 06:41:01;;;;;;;6.80;3.22;;;;;;;6.39;71.34;98984.74;1738777;81;21146;-60
2022/12/11 06:43:28;;;;;;;8.63;6.30;;;;;;;6.38;71.31;98978.70;1744845;80;20996;-59
2022/12/11 06:45:54;;;;;;;10.50;6.33;;;;;;;6.45;71.11;98981.13;1751232;80;21141;-58
2022/12/11 06:48:21;;;;;;;21.30;8.13;;;;;;;6.50;70.95;98973.72;1747533;80;21058;-58
2022/12/11 06:50:47;;;;;;;11.00;6.62;;;;;;;6.57;71.37;98965.37;1742409;80;21135;-58
2022/12/11 06:53:14;;;;;;;11.10;7.12;;;;;;;6.65;71.71;98960.31;1739326;80;22290;-58
2022/12/11 06:55:41;;;;;;;21.30;7.87;;;;;;;6.65;71.77;98956.39;1745281;80;21511;-59
2022/12/11 06:58:07;;;;;;;29.10;7.62;;;;;;;6.64;71.65;98944.27;1743199;80;21544;-59
2022/12/11 07:00:35;;;;;;;23.05;7.00;;;;;;;6.65;71.76;98940.70;1742728;80;21118;-59
2022/12/11 07:03:02;;;;;;;12.90;5.85;;;;;;;6.66;71.49;98948.91;1746321;80;21274;-59
2022/12/11 07:05:29;;;;;;;11.93;6.25;;;;;;;6.66;71.06;98939.27;1747359;80;21073;-58
2022/12/11 07:07:55;;;;;;;12.30;7.78;;;;;;;6.68;71.09;98937.34;1750506;79;21109;-59
2022/12/11 07:10:22;;;;;;;11.97;6.62;;;;;;;6.71;71.30;98933.65;1748455;80;21119;-59
2022/12/11 07:12:52;;;;;;;9.83;6.95;;;;;;;6.73;71.46;98930.41;1744936;80;21137;-60
2022/12/11 07:15:19;;;;;;;12.37;7.37;;;;;;;6.74;71.63;98937.30;1747477;80;21190;-59
2022/12/11 07:17:46;;;;;;;18.10;8.90;;;;;;;6.73;71.64;98927.80;1751302;80;21074;-59
2022/12/11 07:20:14;;;;;;;13.35;7.87;;;;;;;6.71;71.68;98925.80;1749449;80;21090;-59
2022/12/11 07:22:41;;;;;;;13.20;7.05;;;;;;;6.74;71.71;98920.31;1749397;80;21114;-58
2022/12/11 07:25:08;;;;;;;13.65;6.58;;;;;;;6.82;71.52;98915.21;1751336;80;21071;-59
2022/12/11 07:27:35;;;;;;;17.98;7.05;;;;;;;6.88;71.43;98898.18;1751299;80;21135;-59
2022/12/11 07:30:02;;;;;;;18.60;6.92;;;;;;;6.97;71.74;98887.38;1712500;82;21102;-59
2022/12/11 07:32:29;;;;;;;17.52;7.05;;;;;;;7.01;71.64;98891.36;1708295;82;21550;-59
2022/12/11 07:34:55;;;;;;;17.37;7.45;;;;;;;6.98;71.62;98885.12;1705589;82;21148;-58
2022/12/11 07:37:22;;;;;;;6.90;2.95;;;;;;;6.98;71.68;98887.73;1705326;82;21090;-58
2022/12/11 07:39:49;;;;;;;28.05;8.00;;;;;;;6.96;71.70;98890.94;1704227;82;21158;-58
2022/12/11 07:42:15;;;;;;;11.35;7.05;;;;;;;6.95;71.77;98890.62;1701845;82;21055;-58
2022/12/11 07:44:42;;;;;;;16.25;7.55;;;;;;;6.96;71.61;98886.56;1685797;82;21609;-59
2022/12/11 07:47:10;;;;;;;10.50;6.83;;;;;;;7.03;71.85;98877.20;1739737;80;21643;-59
2022/12/11 07:49:37;;;;;;;11.05;6.42;;;;;;;7.13;71.95;98874.59;1740308;80;21556;-59
2022/12/11 07:52:04;;;;;;;14.95;6.37;;;;;;;7.17;71.78;98876.44;1698932;82;21225;-58
2022/12/11 07:54:32;;;;;;;15.23;7.15;;;;;;;7.19;71.84;98877.94;1698649;82;21090;-59
2022/12/11 07:56:59;;;;;;;14.15;7.58;;;;;;;7.22;72.10;98878.98;1695474;82;21406;-59
2022/12/11 07:59:25;;;;;;;15.15;7.12;;;;;;;7.25;72.23;98873.47;1741143;80;21020;-60
2022/12/11 08:01:52;;;;;;;17.73;7.60;;;;;;;7.27;72.27;98867.29;1735619;80;21487;-59
2022/12/11 08:04:18;;;;;;;20.80;7.65;;;;;;;7.24;72.40;98863.14;1740902;80;21239;-59
2022/12/11 08:06:46;;;;;;;15.43;7.37;;;;;;;7.29;72.43;98850.96;1740127;80;21081;-59
2022/12/11 08:09:14;;;;;;;10.48;6.75;;;;;;;7.39;72.37;98849.16;1739289;80;21067;-58
2022/12/11 08:11:41;;;;;;;11.25;7.65;;;;;;;7.47;72.35;98847.97;1741119;80;21862;-59
2022/12/11 08:14:09;;;;;;;16.10;9.38;;;;;;;7.53;72.26;98836.11;1744469;80;21082;-59
2022/12/11 08:16:39;;;;;;;12.90;8.90;;;;;;;7.51;72.09;98838.05;1739373;80;21134;-59
2022/12/11 08:19:05;;;;;;;14.68;8.85;;;;;;;7.52;72.46;98824.00;1738152;80;21122;-60
2022/12/11 08:21:32;;;;;;;22.30;8.75;;;;;;;7.51;72.52;98821.84;1740135;80;21046;-59
2022/12/11 08:23:59;;;;;;;19.60;8.55;;;;;;;7.56;72.58;98823.55;1696220;83;21497;-59
2022/12/11 08:26:28;;;;;;;14.73;8.20;;;;;;;7.63;72.36;98820.73;1698299;82;21106;-59
2022/12/11 08:28:55;;;;;;;16.57;8.85;;;;;;;7.70;72.18;98821.45;1744015;80;21583;-59
2022/12/11 08:31:22;;;;;;;19.17;9.55;;;;;;;7.72;72.40;98814.30;1740971;80;21094;-59
2022/12/11 08:33:49;;;;;;;16.35;9.40;;;;;;;7.75;72.56;98800.91;1741362;80;21043;-59
2022/12/11 08:36:18;;;;;;;15.50;9.23;;;;;;;7.77;72.86;98810.77;1741626;80;21134;-59
2022/12/11 08:38:45;;;;;;;14.80;7.78;;;;;;;7.79;72.87;98803.59;1739462;80;21047;-59
2022/12/11 08:41:19;;;;;;;20.65;9.20;;;;;;;7.75;72.80;98790.42;1742282;80;21305;-59
2022/12/11 08:43:45;;;;;;;17.52;8.88;;;;;;;7.77;72.66;98784.09;1701471;82;21670;-59
2022/12/11 08:46:12;;;;;;;14.10;8.78;;;;;;;7.81;72.76;98779.39;1703450;82;21643;-60
2022/12/11 08:48:40;;;;;;;12.33;8.43;;;;;;;7.87;72.91;98771.42;1698030;82;21061;-59
2022/12/11 08:51:10;;;;;;;14.90;9.88;;;;;;;7.89;73.13;98771.64;1703383;82;21104;-59
2022/12/11 08:53:37;;;;;;;13.20;9.33;;;;;;;7.92;73.35;98762.68;1737921;80;21137;-59
2022/12/11 08:56:08;;;;;;;13.08;9.08;;;;;;;7.95;73.49;98759.74;1699434;83;21403;-59
2022/12/11 08:58:36;;;;;;;15.98;9.50;;;;;;;7.94;73.50;98749.77;1736362;80;21092;-62
2022/12/11 09:01:13;;;;;;;13.20;9.10;;;;;;;7.94;73.45;98751.07;1739667;80;21063;-61
2022/12/11 09:03:39;;;;;;;15.10;8.58;;;;;;;8.00;73.30;98745.72;1737376;80;21114;-60
2022/12/11 09:06:09;;;;;;;12.88;8.68;;;;;;;8.06;73.19;98741.71;1739624;80;21264;-58
2022/12/11 09:08:35;;;;;;;16.10;10.65;;;;;;;8.11;73.30;98735.55;1741695;80;21310;-58
2022/12/11 09:11:11;;;;;;;13.45;9.93;;;;;;;8.13;73.49;98727.86;1741277;80;21125;-59
2022/12/11 09:13:38;;;;;;;;;;;;;;;8.13;73.69;98725.23;1702487;83;21296;-59
2022/12/11 09:16:09;;;;;;;18.73;10.35;;;;;;;8.14;73.77;98722.16;1696427;82;20270;-58
2022/12/11 09:18:37;;;;;;;18.35;9.25;;;;;;;8.10;73.69;98709.84;1743136;80;21312;-59
2022/12/11 09:21:06;;;;;;;14.10;7.97;;;;;;;8.12;73.62;98700.50;1744564;80;21098;-58
2022/12/11 09:23:33;;;;;;;12.10;7.80;;;;;;;8.16;73.25;98697.94;1737026;80;21332;-58
2022/12/11 09:26:05;;;;;;;14.78;8.83;;;;;;;8.18;73.23;98693.36;1739874;80;21145;-58
2022/12/11 09:28:32;;;;;;;17.70;9.50;;;;;;;8.26;73.37;98700.48;1699228;82;21129;-60
2022/12/11 09:30:59;;;;;;;13.35;9.25;;;;;;;8.31;73.39;98684.64;1697985;82;21214;-61
2022/12/11 09:33:25;;;;;;;22.45;9.60;;;;;;;8.34;73.74;98683.53;1691417;82;21161;-61
2022/12/11 09:36:01;;;;;;;25.43;11.03;;;;;;;8.40;73.99;98672.92;1690086;82;21574;-61
2022/12/11 09:38:28;;;;;;;19.98;8.88;;;;;;;8.41;73.86;98667.53;1691013;82;21146;-60
2022/12/11 09:40:55;;;;;;;18.07;7.12;;;;;;;8.42;73.69;98656.56;1692426;82;21185;-61
2022/12/11 09:46:14;;;;;;;18.67;7.37;;;;;;;8.61;73.35;98652.48;1870042;74;22686;-60
2022/12/11 09:48:45;;;;;;;21.90;8.18;;;;;;;8.64;73.41;98644.33;1848459;75;21042;-61
2022/12/11 09:51:27;;;;;;;17.07;7.45;;;;;;;8.69;73.50;98643.84;1849311;75;21095;-61
2022/12/11 09:53:54;;;;;;;20.32;8.25;;;;;;;8.70;73.60;98639.76;1851263;75;21084;-61
2022/12/11 09:56:27;;;;;;;9.78;6.17;;;;;;;8.68;73.74;98622.55;1846588;75;21064;-61
2022/12/11 09:59:31;;;;;;;9.70;5.78;;;;;;;8.73;74.12;98625.03;1809209;77;21058;-60
2022/12/11 10:02:28;;;;;;;11.68;5.95;;;;;;;8.83;74.33;98612.32;1812156;77;21394;-61
2022/12/11 10:05:23;;;;;;;8.20;5.42;;;;;;;8.93;74.51;98607.78;1808589;77;21782;-63
2022/12/11 10:08:11;;;;;;;9.38;6.40;;;;;;;9.04;74.90;98598.81;1781621;78;21144;-62
2022/12/11 10:10:45;;;;;;;13.08;6.58;;;;;;;9.15;75.11;98591.98;1783070;78;21113;-62
2022/12/11 10:13:29;;;;;;;14.28;6.80;;;;;;;9.24;75.43;98583.64;1785652;78;21097;-62
2022/12/11 10:17:01;;;;;;;9.20;6.20;;;;;;;9.24;76.75;98570.52;1797585;78;21658;-61
2022/12/11 10:19:29;;;;;;;9.03;6.28;;;;;;;9.40;76.47;98565.83;1771341;79;21528;-62
2022/12/11 10:21:56;;;;;;;9.40;6.05;;;;;;;9.49;76.57;98560.42;1772198;80;21210;-62
2022/12/11 10:24:50;;;;;;;9.48;6.42;;;;;;;9.60;76.64;98557.16;1766280;79;21512;-61
2022/12/11 10:27:21;;;;;;;10.13;6.40;;;;;;;9.67;76.79;98552.42;1764522;80;21006;-62
2022/12/11 10:30:08;;;;;;;9.70;6.55;;;;;;;9.77;77.01;98535.70;1763162;79;21034;-61
2022/12/11 10:34:12;;;;;;;13.08;7.35;;;;;;;9.86;77.79;98527.64;1759112;79;22210;-61
2022/12/11 10:36:40;;;;;;;9.98;6.35;;;;;;;9.97;77.58;98530.45;1734315;81;21532;-61
2022/12/11 10:39:18;;;;;;;10.13;6.25;;;;;;;10.02;77.86;98514.20;1684346;83;21405;-61
2022/12/11 10:41:47;;;;;;;10.13;5.97;;;;;;;10.07;77.83;98505.33;1714652;82;20956;-60
2022/12/11 10:44:26;;;;;;;8.70;6.03;;;;;;;10.15;77.75;98500.03;1686095;83;21111;-61
2022/12/11 10:47:11;;;;;;;9.40;5.67;;;;;;;10.23;77.76;98494.77;1745484;81;21166;-61
2022/12/11 10:49:38;;;;;;;9.18;6.47;;;;;;;10.30;77.91;98482.28;1679067;83;21133;-61
2022/12/11 10:52:30;;;;;;;8.85;6.47;;;;;;;10.32;78.10;98485.59;1659490;84;21253;-61
2022/12/11 10:55:23;;;;;;;11.20;6.87;;;;;;;10.34;78.36;98476.56;1669625;85;21572;-61
2022/12/11 10:58:18;;;;;;;9.10;6.10;;;;;;;10.34;78.54;98474.41;1653241;86;21071;-60
2022/12/11 11:01:00;;;;;;;10.15;5.62;;;;;;;10.36;78.53;98472.45;1669359;84;21296;-60
2022/12/11 11:03:27;;;;;;;9.18;6.47;;;;;;;10.33;78.57;98462.27;1682904;81;21099;-61
2022/12/11 11:06:13;;;;;;;8.60;5.58;;;;;;;10.37;78.84;98464.88;1684974;83;21506;-61
2022/12/11 11:08:44;;;;;;;8.95;5.80;;;;;;;10.57;78.38;98457.41;1688148;83;21111;-60
2022/12/11 11:11:35;;;;;;;9.35;5.75;;;;;;;10.52;78.76;98455.80;1755012;80;21552;-60
2022/12/11 11:14:13;;;;;;;10.23;6.50;;;;;;;10.51;78.94;98452.34;1727843;81;21138;-60
2022/12/11 11:16:42;;;;;;;10.30;6.05;;;;;;;10.51;79.18;98443.66;1749103;81;21062;-60
2022/12/11 11:19:21;;;;;;;8.30;5.22;;;;;;;10.54;79.23;98442.81;1749021;81;21250;-60
2022/12/11 11:21:51;;;;;;;7.40;4.62;;;;;;;10.64;79.15;98433.88;1748912;81;21035;-60
2022/12/11 11:24:35;;;;;;;8.35;4.58;;;;;;;10.71;79.07;98441.44;1750801;81;21038;-60
2022/12/11 11:27:02;;;;;;;7.97;5.03;;;;;;;10.79;78.95;98426.91;1741541;81;21077;-60
2022/12/11 11:29:32;;;;;;;8.70;5.83;;;;;;;10.82;78.88;98426.56;1681933;83;21099;-60
2022/12/11 11:32:32;;;;;;;8.55;5.70;;;;;;;10.81;78.97;98428.05;1688332;84;21199;-60
2022/12/11 11:35:17;;;;;;;8.83;5.42;;;;;;;10.77;79.03;98417.05;1688927;84;21615;-61
2022/12/11 11:37:47;;;;;;;7.62;4.42;;;;;;;10.82;78.98;98419.98;1703868;83;21138;-60
2022/12/11 11:40:47;;;;;;;8.78;4.95;;;;;;;10.88;78.67;98414.05;1732974;81;21003;-60
2022/12/11 11:43:32;;;;;;;7.00;4.35;;;;;;;10.92;78.54;98407.94;1747968;81;21015;-62
2022/12/11 11:46:26;;;;;;;9.48;5.20;;;;;;;10.98;78.47;98399.36;1755334;81;21139;-60
2022/12/11 11:49:18;;;;;;;7.37;5.28;;;;;;;11.03;78.41;98398.81;1732468;81;21106;-61
2022/12/11 11:52:27;;;;;;;8.93;5.22;;;;;;;11.00;78.33;98392.10;1751947;81;21090;-61
2022/12/11 11:55:08;;;;;;;8.08;4.47;;;;;;;10.98;78.44;98388.83;1742638;81;21509;-61
2022/12/11 11:57:46;;;;;;;8.43;4.60;;;;;;;10.97;78.08;98385.36;1749776;81;21042;-61
2022/12/11 12:00:19;;;;;;;5.90;4.00;;;;;;;11.00;77.82;98380.77;1734255;81;21882;-59
2022/12/11 12:02:49;;;;;;;7.10;4.45;;;;;;;11.02;77.81;98376.14;1730810;81;21003;-61
2022/12/11 12:05:20;;;;;;;7.97;4.80;;;;;;;11.05;77.86;98371.34;1748828;81;21102;-60
2022/12/11 12:08:09;;;;;;;9.30;5.53;;;;;;;11.04;77.90;98368.88;1683438;84;21151;-60
2022/12/11 12:10:59;;;;;;;7.37;4.47;;;;;;;11.04;77.91;98369.69;1681779;84;21471;-61
2022/12/11 12:14:01;;;;;;;7.75;4.30;;;;;;;11.05;77.92;98365.27;1695564;84;21220;-61
2022/12/11 12:16:33;;;;;;;8.15;4.22;;;;;;;11.10;77.54;98357.66;1751705;80;21036;-61
2022/12/11 12:19:04;;;;;;;6.83;4.12;;;;;;;11.15;77.33;98350.05;1750530;81;21050;-61
2022/12/11 12:21:43;;;;;;;7.10;4.25;;;;;;;11.20;77.38;98346.39;1752577;81;21062;-61
2022/12/11 12:24:22;;;;;;;7.58;4.72;;;;;;;11.21;77.65;98345.38;1753478;81;21081;-61
2022/12/11 12:27:17;;;;;;;6.37;3.15;;;;;;;11.20;77.64;98334.55;1681836;83;22056;-61
2022/12/11 12:30:04;;;;;;;6.10;3.65;;;;;;;11.22;77.64;98331.73;1699587;82;21551;-62
2022/12/11 12:32:51;;;;;;;6.10;3.00;;;;;;;11.28;77.47;98335.80;1678918;84;21465;-60
2022/12/11 12:35:36;;;;;;;4.95;2.90;;;;;;;11.30;77.45;98336.44;1672457;84;21083;-61
2022/12/11 12:38:23;;;;;;;5.90;3.52;;;;;;;11.33;77.47;98329.50;1677081;84;21074;-61
2022/12/11 12:41:26;;;;;;;6.60;3.58;;;;;;;11.38;77.57;98326.81;1636845;86;21201;-61
2022/12/11 12:44:15;;;;;;;5.78;3.37;;;;;;;11.29;78.03;98321.63;1655260;84;21048;-61
2022/12/11 12:46:59;;;;;;;6.42;3.17;;;;;;;11.27;78.24;98323.63;1692132;84;21188;-60
2022/12/11 12:49:47;;;;;;;6.50;3.45;;;;;;;11.27;78.20;98320.17;1687215;84;21074;-61
2022/12/11 12:52:28;;;;;;;6.30;3.12;;;;;;;11.29;78.04;98313.72;1692604;84;21145;-61
2022/12/11 12:57:49;;;;;;;7.95;3.30;;;;;;;11.39;78.24;98311.35;1690476;83;21062;-62
2022/12/11 13:00:36;;;;;;;5.78;3.02;;;;;;;11.45;78.42;98310.64;1690149;84;21118;-61
2022/12/11 13:03:28;;;;;;;7.75;3.70;;;;;;;11.46;78.59;98309.63;1676026;84;21052;-62
2022/12/11 13:06:01;;;;;;;6.25;3.10;;;;;;;11.45;78.75;98306.19;1682581;83;21161;-61
2022/12/11 13:08:37;;;;;;;5.80;3.67;;;;;;;11.49;78.92;98303.50;1685820;84;21507;-60
2022/12/11 13:11:10;;;;;;;5.35;2.87;;;;;;;11.58;78.89;98298.96;1684222;84;21061;-60
2022/12/11 13:13:39;;;;;;;5.65;2.75;;;;;;;11.63;78.91;98300.59;1696318;84;21102;-61
2022/12/11 13:16:21;;;;;;;6.95;3.33;;;;;;;11.72;78.96;98298.67;1677247;84;21020;-61
2022/12/11 13:18:47;;;;;;;5.00;2.62;;;;;;;11.80;79.01;98301.70;1652001;85;20980;-61
2022/12/11 13:21:35;;;;;;;9.85;3.33;;;;;;;11.85;78.92;98293.59;1612399;87;21207;-60
2022/12/11 13:24:24;;;;;;;7.80;3.35;;;;;;;11.84;79.02;98285.86;1673269;84;21003;-61
2022/12/11 13:26:51;;;;;;;6.65;3.15;;;;;;;11.84;79.23;98286.67;1655379;84;20936;-60
2022/12/11 13:29:39;;;;;;;7.03;2.95;;;;;;;11.89;79.22;98281.67;1662088;86;21004;-61
2022/12/11 13:32:20;;;;;;;4.12;2.15;;;;;;;11.98;79.09;98282.92;1661166;84;21071;-61
2022/12/11 13:34:57;;;;;;;6.42;3.35;;;;;;;12.03;78.76;98281.36;1719596;81;21160;-61
2022/12/11 13:40:29;;;;;;;5.83;2.83;;;;;;;12.11;78.74;98272.55;1641612;81;66280;-60
2022/12/11 13:42:59;;;;;;;6.25;2.85;;;;;;;12.10;78.64;98275.37;1632156;87;21055;-63
2022/12/11 13:45:48;;;;;;;7.05;2.77;;;;;;;12.14;78.50;98267.39;1652250;86;21548;-60
2022/12/11 13:48:30;;;;;;;8.88;2.52;;;;;;;12.18;78.25;98264.72;1635550;86;21857;-61
2022/12/11 13:50:58;;;;;;;7.47;2.47;;;;;;;12.21;77.97;98259.08;1626253;86;21130;-60
2022/12/11 13:53:24;;;;;;;4.87;2.30;;;;;;;12.27;77.99;98260.95;1637194;86;21143;-62
2022/12/11 13:56:05;;;;;;;4.87;2.45;;;;;;;12.18;78.48;98257.62;1641769;86;21133;-60
2022/12/11 13:58:39;;;;;;;5.65;2.75;;;;;;;12.17;78.50;98253.37;1651909;86;21632;-61
2022/12/11 14:01:15;;;;;;;5.53;2.55;;;;;;;12.17;78.66;98256.00;1634409;86;21252;-60
2022/12/11 14:03:54;;;;;;;5.37;2.90;;;;;;;12.16;78.79;98256.19;1629371;86;21099;-61
2022/12/11 14:06:21;;;;;;;6.60;2.60;;;;;;;12.15;78.73;98252.71;1636013;87;21086;-60
2022/12/11 14:08:51;;;;;;;6.28;2.02;;;;;;;12.21;78.60;98253.81;1641730;86;21068;-62
2022/12/11 14:11:26;;;;;;;5.05;2.33;;;;;;;12.26;78.48;98260.15;1635421;87;21105;-62
2022/12/11 14:13:54;;;;;;;;;;;;;;;12.34;78.60;98251.32;1638391;86;21094;-62
2022/12/11 14:16:22;;;;;;;6.87;2.08;;;;;;;12.40;78.42;98261.61;1611606;87;20196;-61
2022/12/11 14:18:49;;;;;;;6.55;2.62;;;;;;;12.43;78.35;98244.91;1644054;86;21118;-60
2022/12/11 14:21:21;;;;;;;5.28;2.37;;;;;;;12.45;78.37;98248.17;1636961;86;21112;-60
2022/12/11 14:23:58;;;;;;;7.87;2.95;;;;;;;12.47;78.64;98241.39;1637355;86;21529;-61
2022/12/11 14:26:31;;;;;;;5.15;2.25;;;;;;;12.49;78.54;98238.09;1652115;86;21153;-61
2022/12/11 14:28:58;;;;;;;5.80;2.20;;;;;;;12.51;78.32;98228.64;1637943;85;22313;-62
2022/12/11 14:31:37;;;;;;;6.28;2.27;;;;;;;12.55;78.12;98236.51;1640597;86;21588;-62
2022/12/11 14:34:17;;;;;;;4.67;2.10;;;;;;;12.57;78.01;98234.49;1630926;86;21088;-62
2022/12/11 14:36:44;;;;;;;6.62;2.10;;;;;;;12.60;77.92;98227.53;1637933;86;21602;-61
2022/12/11 14:39:15;;;;;;;4.62;2.22;;;;;;;12.60;77.98;98230.16;1635520;86;21869;-65
2022/12/11 14:41:59;;;;;;;6.58;2.40;;;;;;;12.61;78.23;98222.58;1620384;87;21095;-63
2022/12/11 14:44:27;;;;;;;5.12;2.00;;;;;;;12.59;78.34;98224.56;1658456;84;21078;-62
2022/12/11 14:46:57;;;;;;;5.35;1.80;;;;;;;12.59;78.35;98224.56;1651643;84;21041;-62
2022/12/11 14:49:50;;;;;;;3.70;1.57;;;;;;;12.63;78.26;98224.52;1660456;84;21081;-64
2022/12/11 14:52:21;;;;;;;4.78;1.40;;;;;;;12.68;78.15;98232.68;1658321;86;21137;-60
2022/12/11 14:54:55;;;;;;;4.92;1.62;;;;;;;12.72;78.24;98232.60;1653794;84;21109;-60
2022/12/11 14:57:24;;;;;;;4.00;1.90;;;;;;;12.74;78.15;98235.89;1657529;85;21061;-61
2022/12/11 14:59:51;;;;;;;4.85;2.05;;;;;;;12.74;78.37;98234.58;1657818;84;21057;-64
2022/12/11 15:02:35;;;;;;;4.10;1.52;;;;;;;12.74;78.42;98231.94;1655670;84;21038;-61
2022/12/11 15:05:17;;;;;;;4.47;1.62;;;;;;;12.72;78.29;98222.05;1660865;84;21996;-63
2022/12/11 15:07:59;;;;;;;4.10;1.70;;;;;;;12.78;78.25;98225.77;1685780;84;21132;-63
2022/12/11 15:10:34;;;;;;;3.92;1.72;;;;;;;12.82;78.22;98217.26;1658940;84;21078;-67
2022/12/11 15:13:05;;;;;;;5.15;2.05;;;;;;;12.82;78.22;98221.73;1664156;85;21078;-61
2022/12/11 15:15:37;;;;;;;5.17;1.80;;;;;;;12.83;78.09;98223.38;1669390;84;21553;-66
2022/12/11 15:18:06;;;;;;;4.92;1.67;;;;;;;12.82;78.24;98214.62;1662299;84;21689;-65
2022/12/11 15:20:33;;;;;;;4.85;2.20;;;;;;;12.79;78.31;98221.62;1664126;84;21069;-64
2022/12/11 15:23:01;;;;;;;6.67;2.47;;;;;;;12.78;78.47;98217.34;1668020;84;21153;-67
2022/12/11 15:25:28;;;;;;;5.33;2.00;;;;;;;12.81;78.26;98216.97;1665881;84;21113;-63
2022/12/11 15:27:58;;;;;;;5.65;2.25;;;;;;;12.81;78.27;98223.56;1669542;84;21140;-65
2022/12/11 15:30:33;;;;;;;5.67;2.00;;;;;;;12.84;78.33;98227.63;1671101;84;21249;-61
2022/12/11 15:33:15;;;;;;;4.72;1.87;;;;;;;12.87;78.32;98225.94;1659217;84;21031;-63
2022/12/11 15:35:52;;;;;;;4.53;2.35;;;;;;;12.87;78.35;98222.48;1653836;84;21116;-64
2022/12/11 15:38:39;;;;;;;5.83;2.35;;;;;;;12.85;78.53;98225.83;1659488;84;21579;-62
2022/12/11 15:41:13;;;;;;;4.37;1.80;;;;;;;12.82;78.53;98219.09;1662061;84;21669;-60
2022/12/11 15:43:39;;;;;;;6.53;2.17;;;;;;;12.82;78.55;98222.54;1674152;84;21230;-66
2022/12/11 15:46:07;;;;;;;4.37;1.87;;;;;;;12.85;78.52;98213.44;1678785;84;21110;-62
2022/12/11 15:48:33;;;;;;;6.62;2.12;;;;;;;12.90;78.50;98211.55;1666127;84;21052;-63
2022/12/11 15:51:00;;;;;;;5.30;2.70;;;;;;;12.96;78.48;98212.09;1670423;84;21037;-62
2022/12/11 15:53:27;;;;;;;7.90;2.62;;;;;;;12.99;78.53;98213.87;1682110;84;21148;-61
2022/12/11 15:55:53;;;;;;;6.25;2.80;;;;;;;12.99;78.55;98215.67;1674863;84;21207;-61
2022/12/11 15:58:22;;;;;;;4.20;2.20;;;;;;;12.97;78.48;98216.38;1676072;84;21049;-61
2022/12/11 16:00:48;;;;;;;4.67;2.35;;;;;;;12.95;78.27;98213.92;1667195;84;21140;-61
2022/12/11 16:03:17;;;;;;;5.85;2.50;;;;;;;12.96;78.11;98213.41;1663207;84;21014;-61
2022/12/11 16:05:43;;;;;;;6.00;2.60;;;;;;;12.98;78.07;98220.66;1670928;84;21044;-61
2022/12/11 16:08:15;;;;;;;5.42;2.45;;;;;;;13.00;77.99;98218.64;1670614;85;21747;-62
2022/12/11 16:29:06;;;;;;;10.75;5.00;;;;;;;13.01;78.62;98203.09;1670745;84;21157;-64
2022/12/11 16:31:33;;;;;;;8.13;4.45;;;;;;;13.00;78.64;98205.44;1674783;84;21089;-67
2022/12/11 16:34:00;;;;;;;8.23;4.40;;;;;;;13.00;78.74;98208.08;1662871;84;20997;-64
2022/12/11 16:36:29;;;;;;;8.95;5.53;;;;;;;12.97;78.81;98202.66;1683384;84;21563;-62
2022/12/11 16:38:55;;;;;;;8.38;4.60;;;;;;;12.92;78.93;98212.98;1671601;84;21089;-65
2022/12/11 16:41:22;;;;;;;7.33;4.78;;;;;;;12.90;79.05;98211.05;1662923;85;21564;-64
2022/12/11 16:43:49;;;;;;;8.70;4.90;;;;;;;12.93;78.99;98212.50;1653994;85;21806;-64
2022/12/11 16:46:22;;;;;;;9.65;5.62;;;;;;;12.95;78.94;98211.80;1659404;85;21550;-61
2022/12/11 16:48:49;;;;;;;9.55;4.33;;;;;;;12.98;79.04;98214.06;1654476;85;21052;-64
2022/12/11 16:51:16;;;;;;;9.80;5.22;;;;;;;13.01;79.04;98206.56;1656601;85;21294;-62
2022/12/11 16:53:43;;;;;;;14.18;6.15;;;;;;;13.03;78.99;98210.34;1650608;85;21679;-64
2022/12/11 16:56:09;;;;;;;15.98;7.28;;;;;;;13.01;79.15;98216.29;1654939;85;21077;-63
2022/12/11 16:58:36;;;;;;;10.28;6.35;;;;;;;12.99;79.14;98216.51;1654783;85;21057;-63
2022/12/11 17:01:13;;;;;;;14.30;6.28;;;;;;;12.96;79.20;98209.45;1656751;85;21078;-66
2022/12/11 17:03:43;;;;;;;11.25;4.97;;;;;;;12.97;79.21;98213.22;1656330;84;21752;-61
2022/12/11 17:06:13;;;;;;;10.88;6.12;;;;;;;13.01;79.13;98212.33;1657931;85;21140;-63
2022/12/11 17:08:41;;;;;;;17.65;7.45;;;;;;;13.02;79.04;98213.97;1661243;85;21192;-62
2022/12/11 17:11:11;;;;;;;14.05;7.83;;;;;;;13.00;79.15;98215.48;1657279;85;21642;-63
2022/12/11 17:13:38;;;;;;;15.28;8.63;;;;;;;13.05;79.05;98212.27;1651768;85;21084;-64
2022/12/11 17:16:11;;;;;;;13.48;7.83;;;;;;;12.89;79.60;98220.47;1657249;85;21077;-66
2022/12/11 17:18:37;;;;;;;17.62;7.97;;;;;;;12.85;79.75;98218.72;1658322;85;21121;-62
2022/12/11 17:21:10;;;;;;;15.00;7.55;;;;;;;12.89;79.63;98212.55;1660779;85;21641;-63
2022/12/11 17:23:37;;;;;;;16.95;8.33;;;;;;;12.92;79.63;98212.17;1665850;85;22313;-63
2022/12/11 17:26:04;;;;;;;15.30;7.75;;;;;;;12.95;79.58;98215.24;1664440;85;21018;-60
2022/12/11 17:28:34;;;;;;;18.17;8.43;;;;;;;12.98;79.49;98215.38;1656682;85;21113;-62
2022/12/11 17:31:08;;;;;;;17.48;8.65;;;;;;;12.99;79.48;98219.15;1660651;85;21663;-64
2022/12/11 17:33:34;;;;;;;15.63;8.95;;;;;;;12.97;79.49;98217.70;1640595;86;21133;-61
2022/12/11 17:36:03;;;;;;;17.05;9.55;;;;;;;12.93;79.62;98227.02;1658898;85;21089;-62
2022/12/11 17:38:30;;;;;;;12.55;7.65;;;;;;;12.90;79.63;98221.60;1664338;85;21679;-66
2022/12/11 17:40:56;;;;;;;15.55;8.53;;;;;;;12.93;79.53;98215.95;1668235;84;21884;-61
2022/12/11 17:43:22;;;;;;;14.75;8.60;;;;;;;12.97;79.41;98225.61;1645418;85;21108;-66
2022/12/11 17:45:54;;;;;;;17.90;8.83;;;;;;;12.98;79.41;98225.42;1681629;83;21120;-64
2022/12/11 17:48:23;;;;;;;14.80;9.28;;;;;;;12.97;79.47;98217.18;1680403;83;21234;-66
2022/12/11 17:50:50;;;;;;;17.55;9.70;;;;;;;12.97;79.51;98228.25;1679213;84;22370;-62
2022/12/11 17:53:18;;;;;;;17.77;9.63;;;;;;;12.94;79.65;98214.11;1685283;83;21247;-63
2022/12/11 17:55:45;;;;;;;16.65;8.80;;;;;;;12.93;79.55;98226.50;1640964;85;21220;-63